sensor_id;sensor_type;location;lat;lon;timestamp;pressure;altitude;pressure_sealevel;temperature;humidity
9141;BME280;46330;50.822;7.126;2022-12-29T00:01:55;99827.34;;;10.62;94.83
9141;BME280;46330;50.822;7.126;2022-12-29T00:04:23;99825.56;;;10.64;94.75
9141;BME280;46330;50.822;7.126;2022-12-29T00:06:52;99817.75;;;10.63;95.60
9141;BME280;46330;50.822;7.126;2022-12-29T00:09:21;99808.16;;;10.63;96.26
9141;BME280;46330;50.822;7.126;2022-12-29T00:11:49;99800.34;;;10.62;95.72
9141;BME280;46330;50.822;7.126;2022-12-29T00:14:17;99794.91;;;10.68;94.81
9141;BME280;46330;50.822;7.126;2022-12-29T00:17:03;99792.25;;;10.69;95.14
9141;BME280;46330;50.822;7.126;2022-12-29T00:19:31;99798.38;;;10.68;95.17
9141;BME280;46330;50.822;7.126;2022-12-29T00:22:16;99802.75;;;10.68;95.16
9141;BME280;46330;50.822;7.126;2022-12-29T00:25:04;99796.47;;;10.73;94.88
9141;BME280;46330;50.822;7.126;2022-12-29T00:27:49;99795.41;;;10.79;94.12
9141;BME280;46330;50.822;7.126;2022-12-29T00:30:34;99797.13;;;10.80;94.21
9141;BME280;46330;50.822;7.126;2022-12-29T00:33:22;99797.13;;;10.80;93.94
9141;BME280;46330;50.822;7.126;2022-12-29T00:36:14;99788.34;;;10.81;94.10
9141;BME280;46330;50.822;7.126;2022-12-29T00:38:47;99777.84;;;10.83;93.88
9141;BME280;46330;50.822;7.126;2022-12-29T00:41:50;99781.38;;;10.82;94.23
9141;BME280;46330;50.822;7.126;2022-12-29T00:44:36;99776.03;;;10.85;93.94
9141;BME280;46330;50.822;7.126;2022-12-29T00:47:04;99778.41;;;10.92;92.95
9141;BME280;46330;50.822;7.126;2022-12-29T00:49:32;99766.19;;;10.93;93.09
9141;BME280;46330;50.822;7.126;2022-12-29T00:52:02;99754.78;;;10.94;93.34
9141;BME280;46330;50.822;7.126;2022-12-29T00:54:31;99769.72;;;10.90;93.53
9141;BME280;46330;50.822;7.126;2022-12-29T00:57:01;99777.56;;;10.90;93.63
9141;BME280;46330;50.822;7.126;2022-12-29T00:59:30;99779.16;;;10.96;93.16
9141;BME280;46330;50.822;7.126;2022-12-29T01:01:58;99783.56;;;10.94;93.17
9141;BME280;46330;50.822;7.126;2022-12-29T01:04:27;99781.00;;;10.92;93.45
9141;BME280;46330;50.822;7.126;2022-12-29T01:06:55;99776.69;;;10.91;93.88
9141;BME280;46330;50.822;7.126;2022-12-29T01:09:23;99779.88;;;10.99;92.85
9141;BME280;46330;50.822;7.126;2022-12-29T01:12:11;99765.91;;;11.00;93.30
9141;BME280;46330;50.822;7.126;2022-12-29T01:14:40;99772.88;;;11.00;93.54
9141;BME280;46330;50.822;7.126;2022-12-29T01:17:08;99772.88;;;11.00;93.83
9141;BME280;46330;50.822;7.126;2022-12-29T01:19:36;99778.22;;;10.97;94.11
9141;BME280;46330;50.822;7.126;2022-12-29T01:22:04;99766.06;;;10.96;93.91
9141;BME280;46330;50.822;7.126;2022-12-29T01:24:32;99772.63;;;11.07;92.16
9141;BME280;46330;50.822;7.126;2022-12-29T01:27:00;99771.88;;;11.04;92.24
9141;BME280;46330;50.822;7.126;2022-12-29T01:29:30;99770.97;;;11.05;91.82
9141;BME280;46330;50.822;7.126;2022-12-29T01:31:58;99775.03;;;11.13;91.38
9141;BME280;46330;50.822;7.126;2022-12-29T01:34:26;99772.44;;;11.12;90.83
9141;BME280;46330;50.822;7.126;2022-12-29T01:36:54;99781.16;;;11.12;90.42
9141;BME280;46330;50.822;7.126;2022-12-29T01:39:23;99775.72;;;11.18;88.72
9141;BME280;46330;50.822;7.126;2022-12-29T01:41:51;99771.28;;;11.20;87.73
9141;BME280;46330;50.822;7.126;2022-12-29T01:44:46;99783.00;;;11.33;86.26
9141;BME280;46330;50.822;7.126;2022-12-29T01:47:14;99781.13;;;11.37;85.22
9141;BME280;46330;50.822;7.126;2022-12-29T01:49:44;99774.09;;;11.39;84.44
9141;BME280;46330;50.822;7.126;2022-12-29T01:52:12;99778.63;;;11.34;84.16
9141;BME280;46330;50.822;7.126;2022-12-29T01:54:42;99780.28;;;11.37;83.10
9141;BME280;46330;50.822;7.126;2022-12-29T01:57:13;99774.78;;;11.44;81.58
9141;BME280;46330;50.822;7.126;2022-12-29T01:59:50;99767.59;;;11.49;81.07
9141;BME280;46330;50.822;7.126;2022-12-29T02:02:19;99788.03;;;11.63;79.13
9141;BME280;46330;50.822;7.126;2022-12-29T02:04:47;99773.53;;;11.54;79.84
9141;BME280;46330;50.822;7.126;2022-12-29T02:07:18;99752.59;;;11.54;79.60
9141;BME280;46330;50.822;7.126;2022-12-29T02:09:47;99738.88;;;11.48;79.92
9141;BME280;46330;50.822;7.126;2022-12-29T02:12:16;99739.66;;;11.50;79.37
9141;BME280;46330;50.822;7.126;2022-12-29T02:14:47;99732.59;;;11.52;79.41
9141;BME280;46330;50.822;7.126;2022-12-29T02:17:22;99730.94;;;11.49;78.94
9141;BME280;46330;50.822;7.126;2022-12-29T02:23:11;99724.88;;;11.49;79.14
9141;BME280;46330;50.822;7.126;2022-12-29T02:26:13;99731.00;;;11.48;79.35
9141;BME280;46330;50.822;7.126;2022-12-29T02:29:06;99727.19;;;11.56;79.29
9141;BME280;46330;50.822;7.126;2022-12-29T02:31:44;99725.34;;;11.58;79.08
9141;BME280;46330;50.822;7.126;2022-12-29T02:34:22;99731.06;;;11.69;79.12
9141;BME280;46330;50.822;7.126;2022-12-29T02:37:00;99716.44;;;11.64;79.85
9141;BME280;46330;50.822;7.126;2022-12-29T02:39:35;99716.78;;;11.55;80.62
9141;BME280;46330;50.822;7.126;2022-12-29T02:42:09;99722.84;;;11.55;80.70
9141;BME280;46330;50.822;7.126;2022-12-29T02:44:52;99721.94;;;11.56;81.17
9141;BME280;46330;50.822;7.126;2022-12-29T02:47:28;99718.19;;;11.63;80.84
9141;BME280;46330;50.822;7.126;2022-12-29T02:50:03;99704.34;;;11.60;81.31
9141;BME280;46330;50.822;7.126;2022-12-29T02:52:37;99701.72;;;11.60;81.78
9141;BME280;46330;50.822;7.126;2022-12-29T02:55:07;99703.72;;;11.53;82.10
9141;BME280;46330;50.822;7.126;2022-12-29T02:57:36;99704.63;;;11.52;82.08
9141;BME280;46330;50.822;7.126;2022-12-29T03:00:07;99700.25;;;11.53;82.18
9141;BME280;46330;50.822;7.126;2022-12-29T03:06:09;99698.59;;;11.50;83.36
9141;BME280;46330;50.822;7.126;2022-12-29T03:08:51;99697.19;;;11.42;84.87
9141;BME280;46330;50.822;7.126;2022-12-29T03:11:22;99699.88;;;11.40;85.76
9141;BME280;46330;50.822;7.126;2022-12-29T03:14:18;99693.84;;;11.38;85.83
9141;BME280;46330;50.822;7.126;2022-12-29T03:17:12;99684.34;;;11.36;86.62
9141;BME280;46330;50.822;7.126;2022-12-29T03:19:47;99673.78;;;11.37;86.47
9141;BME280;46330;50.822;7.126;2022-12-29T03:22:22;99679.09;;;11.36;86.75
9141;BME280;46330;50.822;7.126;2022-12-29T03:25:04;99679.97;;;11.36;87.15
9141;BME280;46330;50.822;7.126;2022-12-29T03:27:37;99672.34;;;11.30;87.56
9141;BME280;46330;50.822;7.126;2022-12-29T03:30:08;99661.13;;;11.26;87.91
9141;BME280;46330;50.822;7.126;2022-12-29T03:32:42;99667.66;;;11.38;87.06
9141;BME280;46330;50.822;7.126;2022-12-29T03:35:15;99672.00;;;11.39;86.77
9141;BME280;46330;50.822;7.126;2022-12-29T03:37:50;99675.44;;;11.40;86.87
9141;BME280;46330;50.822;7.126;2022-12-29T03:40:22;99674.50;;;11.42;86.80
9141;BME280;46330;50.822;7.126;2022-12-29T03:42:52;99673.53;;;11.45;86.60
9141;BME280;46330;50.822;7.126;2022-12-29T03:45:21;99666.56;;;11.44;86.68
9141;BME280;46330;50.822;7.126;2022-12-29T03:47:50;99662.97;;;11.46;86.04
9141;BME280;46330;50.822;7.126;2022-12-29T03:50:18;99660.34;;;11.46;86.14
9141;BME280;46330;50.822;7.126;2022-12-29T03:52:47;99665.22;;;11.55;85.23
9141;BME280;46330;50.822;7.126;2022-12-29T03:55:15;99664.28;;;11.58;84.96
9141;BME280;46330;50.822;7.126;2022-12-29T03:57:44;99654.50;;;11.61;84.63
9141;BME280;46330;50.822;7.126;2022-12-29T04:00:18;99654.50;;;11.61;84.65
9141;BME280;46330;50.822;7.126;2022-12-29T04:02:48;99651.31;;;11.55;85.42
9141;BME280;46330;50.822;7.126;2022-12-29T04:05:20;99651.47;;;11.50;86.10
9141;BME280;46330;50.822;7.126;2022-12-29T04:07:51;99632.38;;;11.48;86.11
9141;BME280;46330;50.822;7.126;2022-12-29T04:10:19;99631.50;;;11.48;85.95
9141;BME280;46330;50.822;7.126;2022-12-29T04:12:50;99635.38;;;11.38;87.15
9141;BME280;46330;50.822;7.126;2022-12-29T04:15:18;99649.09;;;11.44;86.02
9141;BME280;46330;50.822;7.126;2022-12-29T04:17:47;99652.63;;;11.43;86.37
9141;BME280;46330;50.822;7.126;2022-12-29T04:20:16;99651.94;;;11.38;86.96
9141;BME280;46330;50.822;7.126;2022-12-29T04:23:06;99637.25;;;11.34;86.54
9141;BME280;46330;50.822;7.126;2022-12-29T04:25:36;99635.25;;;11.41;85.47
9141;BME280;46330;50.822;7.126;2022-12-29T04:28:05;99637.03;;;11.40;85.50
9141;BME280;46330;50.822;7.126;2022-12-29T04:30:46;99631.00;;;11.38;85.49
9141;BME280;46330;50.822;7.126;2022-12-29T04:33:18;99611.94;;;11.34;85.67
9141;BME280;46330;50.822;7.126;2022-12-29T04:35:47;99606.47;;;11.41;84.98
9141;BME280;46330;50.822;7.126;2022-12-29T04:38:17;99602.88;;;11.43;84.12
9141;BME280;46330;50.822;7.126;2022-12-29T04:40:46;99581.91;;;11.43;84.60
9141;BME280;46330;50.822;7.126;2022-12-29T04:43:16;99592.50;;;11.40;84.98
9141;BME280;46330;50.822;7.126;2022-12-29T04:46:04;99610.06;;;11.38;84.94
9141;BME280;46330;50.822;7.126;2022-12-29T04:49:05;99615.28;;;11.38;84.13
9141;BME280;46330;50.822;7.126;2022-12-29T04:51:58;99620.94;;;11.49;82.75
9141;BME280;46330;50.822;7.126;2022-12-29T04:54:28;99636.50;;;11.54;81.73
9141;BME280;46330;50.822;7.126;2022-12-29T04:57:10;99642.84;;;11.48;81.01
9141;BME280;46330;50.822;7.126;2022-12-29T04:59:41;99639.00;;;11.57;80.12
9141;BME280;46330;50.822;7.126;2022-12-29T05:02:09;99639.16;;;11.52;79.99
9141;BME280;46330;50.822;7.126;2022-12-29T05:04:38;99644.22;;;11.57;78.33
9141;BME280;46330;50.822;7.126;2022-12-29T05:07:06;99649.75;;;11.49;79.09
9141;BME280;46330;50.822;7.126;2022-12-29T05:09:35;99640.22;;;11.48;78.82
9141;BME280;46330;50.822;7.126;2022-12-29T05:12:04;99636.75;;;11.48;78.50
9141;BME280;46330;50.822;7.126;2022-12-29T05:14:36;99641.78;;;11.52;77.83
9141;BME280;46330;50.822;7.126;2022-12-29T05:17:04;99638.50;;;11.47;77.83
9141;BME280;46330;50.822;7.126;2022-12-29T05:19:32;99641.34;;;11.41;78.31
9141;BME280;46330;50.822;7.126;2022-12-29T05:21:59;99639.47;;;11.45;78.43
9141;BME280;46330;50.822;7.126;2022-12-29T05:24:29;99640.50;;;11.41;78.64
9141;BME280;46330;50.822;7.126;2022-12-29T05:26:59;99653.59;;;11.41;79.16
9141;BME280;46330;50.822;7.126;2022-12-29T05:29:42;99647.69;;;11.36;80.10
9141;BME280;46330;50.822;7.126;2022-12-29T05:32:10;99658.94;;;11.38;80.66
9141;BME280;46330;50.822;7.126;2022-12-29T05:34:38;99659.19;;;11.31;81.59
9141;BME280;46330;50.822;7.126;2022-12-29T05:37:06;99663.75;;;11.26;82.64
9141;BME280;46330;50.822;7.126;2022-12-29T05:39:34;99668.25;;;11.23;83.49
9141;BME280;46330;50.822;7.126;2022-12-29T05:42:05;99677.00;;;11.22;84.91
9141;BME280;46330;50.822;7.126;2022-12-29T05:44:55;99671.19;;;11.14;85.78
9141;BME280;46330;50.822;7.126;2022-12-29T05:47:34;99673.88;;;11.12;86.99
9141;BME280;46330;50.822;7.126;2022-12-29T05:50:06;99666.88;;;11.13;87.53
9141;BME280;46330;50.822;7.126;2022-12-29T05:52:52;99671.34;;;11.09;87.46
9141;BME280;46330;50.822;7.126;2022-12-29T05:55:20;99659.03;;;11.13;87.30
9141;BME280;46330;50.822;7.126;2022-12-29T05:57:51;99670.28;;;11.15;88.39
9141;BME280;46330;50.822;7.126;2022-12-29T06:00:19;99666.94;;;11.11;89.70
9141;BME280;46330;50.822;7.126;2022-12-29T06:02:48;99672.47;;;11.02;91.51
9141;BME280;46330;50.822;7.126;2022-12-29T06:05:17;99674.53;;;10.94;93.70
9141;BME280;46330;50.822;7.126;2022-12-29T06:07:44;99683.50;;;10.87;96.03
9141;BME280;46330;50.822;7.126;2022-12-29T06:10:15;99688.28;;;10.76;96.78
9141;BME280;46330;50.822;7.126;2022-12-29T06:12:48;99674.56;;;10.69;98.30
9141;BME280;46330;50.822;7.126;2022-12-29T06:15:18;99684.28;;;10.66;99.39
9141;BME280;46330;50.822;7.126;2022-12-29T06:17:48;99683.53;;;10.62;100.00
9141;BME280;46330;50.822;7.126;2022-12-29T06:20:17;99676.81;;;10.55;100.00
9141;BME280;46330;50.822;7.126;2022-12-29T06:22:45;99688.19;;;10.54;100.00
9141;BME280;46330;50.822;7.126;2022-12-29T06:25:13;99688.97;;;10.56;100.00
9141;BME280;46330;50.822;7.126;2022-12-29T06:27:43;99695.22;;;10.52;100.00
9141;BME280;46330;50.822;7.126;2022-12-29T06:30:11;99711.94;;;10.47;100.00
9141;BME280;46330;50.822;7.126;2022-12-29T06:32:41;99701.50;;;10.47;100.00
9141;BME280;46330;50.822;7.126;2022-12-29T06:35:11;99681.28;;;10.52;99.90
9141;BME280;46330;50.822;7.126;2022-12-29T06:37:44;99680.25;;;10.56;99.14
9141;BME280;46330;50.822;7.126;2022-12-29T06:40:13;99680.16;;;10.59;99.35
9141;BME280;46330;50.822;7.126;2022-12-29T06:43:10;99680.31;;;10.54;100.00
9141;BME280;46330;50.822;7.126;2022-12-29T06:45:56;99673.16;;;10.59;98.23
9141;BME280;46330;50.822;7.126;2022-12-29T06:48:25;99694.59;;;10.70;96.61
9141;BME280;46330;50.822;7.126;2022-12-29T06:50:53;99706.91;;;10.67;96.44
9141;BME280;46330;50.822;7.126;2022-12-29T06:53:21;99707.88;;;10.64;98.50
9141;BME280;46330;50.822;7.126;2022-12-29T06:55:49;99715.81;;;10.61;98.59
9141;BME280;46330;50.822;7.126;2022-12-29T06:58:17;99717.94;;;10.75;93.89
9141;BME280;46330;50.822;7.126;2022-12-29T07:00:45;99722.28;;;10.76;93.85
9141;BME280;46330;50.822;7.126;2022-12-29T07:03:13;99715.34;;;10.75;92.45
9141;BME280;46330;50.822;7.126;2022-12-29T07:05:42;99723.81;;;10.82;90.07
9141;BME280;46330;50.822;7.126;2022-12-29T07:08:10;99709.78;;;10.84;85.72
9141;BME280;46330;50.822;7.126;2022-12-29T07:10:38;99715.66;;;10.91;84.36
9141;BME280;46330;50.822;7.126;2022-12-29T07:13:06;99689.59;;;10.88;83.82
9141;BME280;46330;50.822;7.126;2022-12-29T07:15:35;99724.47;;;10.88;82.92
9141;BME280;46330;50.822;7.126;2022-12-29T07:18:04;99722.81;;;10.86;82.71
9141;BME280;46330;50.822;7.126;2022-12-29T07:20:32;99720.44;;;11.03;79.03
9141;BME280;46330;50.822;7.126;2022-12-29T07:23:01;99717.25;;;10.95;79.85
9141;BME280;46330;50.822;7.126;2022-12-29T07:25:29;99725.03;;;10.96;79.97
9141;BME280;46330;50.822;7.126;2022-12-29T07:27:57;99727.88;;;10.90;80.10
9141;BME280;46330;50.822;7.126;2022-12-29T07:30:25;99724.31;;;10.93;79.40
9141;BME280;46330;50.822;7.126;2022-12-29T07:32:53;99740.16;;;10.88;80.42
9141;BME280;46330;50.822;7.126;2022-12-29T07:35:21;99755.06;;;10.86;80.93
9141;BME280;46330;50.822;7.126;2022-12-29T07:37:49;99760.31;;;10.86;81.35
9141;BME280;46330;50.822;7.126;2022-12-29T07:40:18;99758.47;;;10.88;80.05
9141;BME280;46330;50.822;7.126;2022-12-29T07:42:46;99762.84;;;10.88;79.58
9141;BME280;46330;50.822;7.126;2022-12-29T07:45:15;99769.03;;;10.85;79.67
9141;BME280;46330;50.822;7.126;2022-12-29T07:47:48;99776.75;;;10.90;79.24
9141;BME280;46330;50.822;7.126;2022-12-29T07:50:16;99781.97;;;10.90;78.78
9141;BME280;46330;50.822;7.126;2022-12-29T07:52:44;99788.31;;;10.83;79.26
9141;BME280;46330;50.822;7.126;2022-12-29T07:55:13;99783.84;;;10.86;78.34
9141;BME280;46330;50.822;7.126;2022-12-29T07:57:43;99795.31;;;10.82;79.39
9141;BME280;46330;50.822;7.126;2022-12-29T08:00:11;99796.09;;;10.84;78.59
9141;BME280;46330;50.822;7.126;2022-12-29T08:02:39;99799.66;;;10.83;78.76
9141;BME280;46330;50.822;7.126;2022-12-29T08:05:07;99798.69;;;10.86;79.00
9141;BME280;46330;50.822;7.126;2022-12-29T08:07:35;99808.44;;;10.80;79.42
9141;BME280;46330;50.822;7.126;2022-12-29T08:10:04;99808.16;;;10.90;78.40
9141;BME280;46330;50.822;7.126;2022-12-29T08:12:32;99811.69;;;10.87;78.60
9141;BME280;46330;50.822;7.126;2022-12-29T08:15:01;99810.94;;;10.84;79.38
9141;BME280;46330;50.822;7.126;2022-12-29T08:17:29;99808.38;;;10.82;79.01
9141;BME280;46330;50.822;7.126;2022-12-29T08:19:57;99817.97;;;10.83;79.08
9141;BME280;46330;50.822;7.126;2022-12-29T08:22:25;99823.09;;;10.86;78.54
9141;BME280;46330;50.822;7.126;2022-12-29T08:24:53;99819.66;;;10.84;79.13
9141;BME280;46330;50.822;7.126;2022-12-29T08:27:21;99821.25;;;10.88;78.70
9141;BME280;46330;50.822;7.126;2022-12-29T08:29:49;99819.44;;;10.90;78.86
9141;BME280;46330;50.822;7.126;2022-12-29T08:32:18;99815.25;;;10.86;78.99
9141;BME280;46330;50.822;7.126;2022-12-29T08:34:46;99822.22;;;10.86;79.12
9141;BME280;46330;50.822;7.126;2022-12-29T08:37:14;99826.50;;;10.88;79.28
9141;BME280;46330;50.822;7.126;2022-12-29T08:39:42;99826.53;;;10.87;79.27
9141;BME280;46330;50.822;7.126;2022-12-29T08:42:09;99823.84;;;10.90;79.01
9141;BME280;46330;50.822;7.126;2022-12-29T08:44:38;99830.63;;;10.95;79.19
9141;BME280;46330;50.822;7.126;2022-12-29T08:47:06;99836.97;;;10.88;79.83
9141;BME280;46330;50.822;7.126;2022-12-29T08:49:35;99827.94;;;10.97;80.06
9141;BME280;46330;50.822;7.126;2022-12-29T08:52:04;99834.31;;;10.90;79.53
9141;BME280;46330;50.822;7.126;2022-12-29T08:54:32;99833.25;;;10.95;79.34
9141;BME280;46330;50.822;7.126;2022-12-29T08:57:00;99836.97;;;10.88;79.81
9141;BME280;46330;50.822;7.126;2022-12-29T08:59:35;99839.56;;;10.88;80.12
9141;BME280;46330;50.822;7.126;2022-12-29T09:02:03;99834.69;;;10.77;80.92
9141;BME280;46330;50.822;7.126;2022-12-29T09:04:31;99847.03;;;10.74;80.21
9141;BME280;46330;50.822;7.126;2022-12-29T09:07:01;99849.34;;;10.83;79.87
9141;BME280;46330;50.822;7.126;2022-12-29T09:09:29;99855.72;;;10.74;80.41
9141;BME280;46330;50.822;7.126;2022-12-29T09:11:56;99868.00;;;10.72;79.80
9141;BME280;46330;50.822;7.126;2022-12-29T09:14:24;99863.44;;;10.79;79.16
9141;BME280;46330;50.822;7.126;2022-12-29T09:16:54;99861.59;;;10.81;78.64
9141;BME280;46330;50.822;7.126;2022-12-29T09:19:39;99873.81;;;10.80;79.35
9141;BME280;46330;50.822;7.126;2022-12-29T09:22:08;99873.81;;;10.80;78.89
9141;BME280;46330;50.822;7.126;2022-12-29T09:24:36;99872.06;;;10.81;78.12
9141;BME280;46330;50.822;7.126;2022-12-29T09:27:04;99885.97;;;10.83;78.24
9141;BME280;46330;50.822;7.126;2022-12-29T09:29:32;99891.22;;;10.83;76.89
9141;BME280;46330;50.822;7.126;2022-12-29T09:32:00;99894.75;;;10.80;76.91
9141;BME280;46330;50.822;7.126;2022-12-29T09:34:30;99893.75;;;10.85;75.19
9141;BME280;46330;50.822;7.126;2022-12-29T09:36:58;99904.28;;;10.83;76.04
9141;BME280;46330;50.822;7.126;2022-12-29T09:39:27;99901.69;;;10.82;74.95
9141;BME280;46330;50.822;7.126;2022-12-29T09:42:00;99900.75;;;10.84;74.91
9141;BME280;46330;50.822;7.126;2022-12-29T09:44:42;99920.72;;;10.87;73.50
9141;BME280;46330;50.822;7.126;2022-12-29T09:47:16;99898.94;;;10.86;73.05
9141;BME280;46330;50.822;7.126;2022-12-29T09:49:47;99903.22;;;10.89;71.82
9141;BME280;46330;50.822;7.126;2022-12-29T09:52:20;99916.13;;;10.93;72.43
9141;BME280;46330;50.822;7.126;2022-12-29T09:54:54;99909.25;;;10.91;72.31
9141;BME280;46330;50.822;7.126;2022-12-29T09:57:34;99920.34;;;10.99;71.83
9141;BME280;46330;50.822;7.126;2022-12-29T10:00:11;99926.50;;;10.96;71.99
9141;BME280;46330;50.822;7.126;2022-12-29T10:02:41;99923.06;;;10.96;71.79
9141;BME280;46330;50.822;7.126;2022-12-29T10:05:30;99922.88;;;11.02;73.04
9141;BME280;46330;50.822;7.126;2022-12-29T10:08:11;99918.28;;;11.08;72.61
9141;BME280;46330;50.822;7.126;2022-12-29T10:10:53;99916.59;;;11.06;72.51
9141;BME280;46330;50.822;7.126;2022-12-29T10:13:32;99914.34;;;11.21;71.36
9141;BME280;46330;50.822;7.126;2022-12-29T10:16:08;99915.19;;;11.22;69.58
9141;BME280;46330;50.822;7.126;2022-12-29T10:21:51;99920.19;;;11.29;68.22
9141;BME280;46330;50.822;7.126;2022-12-29T10:24:22;99917.28;;;11.37;66.80
9141;BME280;46330;50.822;7.126;2022-12-29T10:26:55;99925.47;;;11.53;66.39
9141;BME280;46330;50.822;7.126;2022-12-29T10:29:27;99925.69;;;11.47;66.83
9141;BME280;46330;50.822;7.126;2022-12-29T10:32:03;99927.31;;;11.51;66.67
9141;BME280;46330;50.822;7.126;2022-12-29T10:34:36;99920.09;;;11.57;67.52
9141;BME280;46330;50.822;7.126;2022-12-29T10:37:11;99918.34;;;11.58;65.86
9141;BME280;46330;50.822;7.126;2022-12-29T10:39:43;99921.88;;;11.81;65.33
9141;BME280;46330;50.822;7.126;2022-12-29T10:42:25;99916.63;;;11.81;66.65
9141;BME280;46330;50.822;7.126;2022-12-29T10:44:54;99920.03;;;11.59;65.60
9141;BME280;46330;50.822;7.126;2022-12-29T10:47:24;99931.22;;;11.64;66.30
9141;BME280;46330;50.822;7.126;2022-12-29T10:49:53;99924.28;;;11.61;66.33
9141;BME280;46330;50.822;7.126;2022-12-29T10:52:22;99931.91;;;11.70;66.69
9141;BME280;46330;50.822;7.126;2022-12-29T10:54:54;99934.69;;;11.64;66.63
9141;BME280;46330;50.822;7.126;2022-12-29T10:57:28;99932.97;;;11.63;66.62
9141;BME280;46330;50.822;7.126;2022-12-29T10:59:58;99926.84;;;11.64;66.59
9141;BME280;46330;50.822;7.126;2022-12-29T11:02:51;99925.34;;;11.57;66.35
9141;BME280;46330;50.822;7.126;2022-12-29T11:05:30;99926.75;;;11.66;66.51
9141;BME280;46330;50.822;7.126;2022-12-29T11:08:09;99921.41;;;11.69;65.93
9141;BME280;46330;50.822;7.126;2022-12-29T11:10:40;99932.50;;;11.77;66.98
9141;BME280;46330;50.822;7.126;2022-12-29T11:13:15;99935.13;;;11.77;67.09
9141;BME280;46330;50.822;7.126;2022-12-29T11:15:44;99930.59;;;11.82;66.68
9141;BME280;46330;50.822;7.126;2022-12-29T11:18:19;99935.97;;;11.77;66.16
9141;BME280;46330;50.822;7.126;2022-12-29T11:20:49;99927.22;;;11.78;66.35
9141;BME280;46330;50.822;7.126;2022-12-29T11:23:26;99930.41;;;11.86;66.61
9141;BME280;46330;50.822;7.126;2022-12-29T11:26:08;99935.63;;;12.11;66.24
9141;BME280;46330;50.822;7.126;2022-12-29T11:28:42;99936.22;;;12.19;64.41
9141;BME280;46330;50.822;7.126;2022-12-29T11:31:15;99936.72;;;12.29;64.08
9141;BME280;46330;50.822;7.126;2022-12-29T11:33:44;99937.50;;;12.54;64.08
9141;BME280;46330;50.822;7.126;2022-12-29T11:36:14;99940.94;;;13.00;63.94
9141;BME280;46330;50.822;7.126;2022-12-29T11:38:48;99944.09;;;12.64;63.65
9141;BME280;46330;50.822;7.126;2022-12-29T11:41:21;99944.41;;;12.57;63.59
9141;BME280;46330;50.822;7.126;2022-12-29T11:43:53;99943.63;;;12.76;63.05
9141;BME280;46330;50.822;7.126;2022-12-29T11:46:24;99946.16;;;12.56;63.18
9141;BME280;46330;50.822;7.126;2022-12-29T11:48:53;99954.53;;;12.43;63.82
9141;BME280;46330;50.822;7.126;2022-12-29T11:51:27;99958.44;;;12.32;64.50
9141;BME280;46330;50.822;7.126;2022-12-29T11:53:57;99959.50;;;12.27;64.44
9141;BME280;46330;50.822;7.126;2022-12-29T11:56:34;99966.97;;;12.14;64.83
9141;BME280;46330;50.822;7.126;2022-12-29T11:59:36;99968.75;;;12.14;65.77
9141;BME280;46330;50.822;7.126;2022-12-29T12:02:25;99966.94;;;11.91;64.98
9141;BME280;46330;50.822;7.126;2022-12-29T12:04:59;99962.38;;;11.96;65.56
9141;BME280;46330;50.822;7.126;2022-12-29T12:07:38;99968.59;;;11.94;65.66
9141;BME280;46330;50.822;7.126;2022-12-29T12:10:15;99983.25;;;11.99;66.29
9141;BME280;46330;50.822;7.126;2022-12-29T12:12:48;99974.63;;;11.96;66.36
9141;BME280;46330;50.822;7.126;2022-12-29T12:15:22;99971.63;;;11.83;65.83
9141;BME280;46330;50.822;7.126;2022-12-29T12:17:59;99982.91;;;11.85;66.24
9141;BME280;46330;50.822;7.126;2022-12-29T12:20:36;99980.06;;;11.91;66.41
9141;BME280;46330;50.822;7.126;2022-12-29T12:23:15;99984.41;;;11.92;65.97
9141;BME280;46330;50.822;7.126;2022-12-29T12:25:54;99979.63;;;11.78;65.34
9141;BME280;46330;50.822;7.126;2022-12-29T12:28:30;99982.47;;;11.72;66.02
9141;BME280;46330;50.822;7.126;2022-12-29T12:31:06;99991.19;;;11.73;66.96
9141;BME280;46330;50.822;7.126;2022-12-29T12:33:43;100000.19;;;11.64;66.58
9141;BME280;46330;50.822;7.126;2022-12-29T12:36:39;99995.31;;;11.52;66.57
9141;BME280;46330;50.822;7.126;2022-12-29T12:39:19;100002.38;;;11.50;66.55
9141;BME280;46330;50.822;7.126;2022-12-29T12:42:00;100010.34;;;11.47;67.23
9141;BME280;46330;50.822;7.126;2022-12-29T12:44:40;100005.00;;;11.50;66.95
9141;BME280;46330;50.822;7.126;2022-12-29T12:47:30;99999.13;;;11.44;65.65
9141;BME280;46330;50.822;7.126;2022-12-29T12:50:28;100015.59;;;11.47;66.35
9141;BME280;46330;50.822;7.126;2022-12-29T12:53:14;100005.06;;;11.49;66.38
9141;BME280;46330;50.822;7.126;2022-12-29T12:55:59;100005.06;;;11.49;66.82
9141;BME280;46330;50.822;7.126;2022-12-29T12:58:35;100007.72;;;11.47;66.14
9141;BME280;46330;50.822;7.126;2022-12-29T13:01:17;100013.16;;;11.41;65.40
9141;BME280;46330;50.822;7.126;2022-12-29T13:04:03;100019.19;;;11.43;66.44
9141;BME280;46330;50.822;7.126;2022-12-29T13:06:43;100009.59;;;11.44;66.51
9141;BME280;46330;50.822;7.126;2022-12-29T13:09:48;100020.81;;;11.47;66.92
9141;BME280;46330;50.822;7.126;2022-12-29T13:12:28;100016.66;;;11.42;65.94
9141;BME280;46330;50.822;7.126;2022-12-29T13:15:08;100019.28;;;11.42;65.27
9141;BME280;46330;50.822;7.126;2022-12-29T13:17:43;100015.13;;;11.34;65.17
9141;BME280;46330;50.822;7.126;2022-12-29T13:20:22;100014.38;;;11.31;65.21
9141;BME280;46330;50.822;7.126;2022-12-29T13:22:57;100014.16;;;11.37;65.98
9141;BME280;46330;50.822;7.126;2022-12-29T13:25:34;100013.41;;;11.33;66.14
9141;BME280;46330;50.822;7.126;2022-12-29T13:28:12;100010.78;;;11.33;66.41
9141;BME280;46330;50.822;7.126;2022-12-29T13:30:46;100012.59;;;11.31;65.76
9141;BME280;46330;50.822;7.126;2022-12-29T13:33:21;100025.69;;;11.31;65.80
9141;BME280;46330;50.822;7.126;2022-12-29T13:36:00;100014.53;;;11.26;64.87
9141;BME280;46330;50.822;7.126;2022-12-29T13:38:34;100020.63;;;11.27;64.76
9141;BME280;46330;50.822;7.126;2022-12-29T13:41:06;100025.91;;;11.25;65.44
9141;BME280;46330;50.822;7.126;2022-12-29T13:43:39;100027.63;;;11.26;66.10
9141;BME280;46330;50.822;7.126;2022-12-29T13:46:12;100025.03;;;11.25;66.19
9141;BME280;46330;50.822;7.126;2022-12-29T13:48:44;100030.28;;;11.25;66.61
9141;BME280;46330;50.822;7.126;2022-12-29T13:51:16;100026.00;;;11.22;66.50
9141;BME280;46330;50.822;7.126;2022-12-29T13:54:13;100021.66;;;11.21;66.50